createdAt,value
2023-01-27T00:00:21.221Z,-2.14
2023-01-27T00:03:31.025Z,-2.15
2023-01-27T00:06:37.239Z,-2.26
2023-01-27T00:09:44.531Z,-2.16
2023-01-27T00:13:04.283Z,-2.08
2023-01-27T00:16:11.461Z,-2.14
2023-01-27T00:19:20.723Z,-2.22
2023-01-27T00:22:40.138Z,-2.26
2023-01-27T00:25:50.465Z,-2.23
2023-01-27T00:28:57.449Z,-2.20
2023-01-27T00:32:16.484Z,-2.27
2023-01-27T00:35:26.927Z,-2.36
2023-01-27T00:38:41.053Z,-2.41
2023-01-27T00:41:48.119Z,-2.33
2023-01-27T00:45:06.723Z,-2.30
2023-01-27T00:48:13.678Z,-2.30
2023-01-27T00:51:24.190Z,-2.36
2023-01-27T00:54:31.523Z,-2.32
2023-01-27T00:57:38.005Z,-2.22
2023-01-27T01:00:45.213Z,-2.26
2023-01-27T01:03:51.582Z,-2.23
2023-01-27T01:07:01.130Z,-2.16
2023-01-27T01:10:08.142Z,-2.11
2023-01-27T01:13:15.120Z,-2.17
2023-01-27T01:16:25.474Z,-2.21
2023-01-27T01:19:33.739Z,-2.30
2023-01-27T01:22:42.400Z,-2.26
2023-01-27T01:25:57.594Z,-2.33
2023-01-27T01:29:03.752Z,-2.28
2023-01-27T01:32:11.883Z,-2.27
2023-01-27T01:35:18.203Z,-2.30
2023-01-27T01:38:27.901Z,-2.29
2023-01-27T01:41:34.018Z,-2.42
2023-01-27T01:44:45.694Z,-2.50
2023-01-27T01:47:51.941Z,-2.62
2023-01-27T01:51:08.586Z,-2.51
2023-01-27T01:54:26.960Z,-2.51
2023-01-27T01:57:42.909Z,-2.43
2023-01-27T02:00:49.335Z,-2.36
2023-01-27T02:04:08.642Z,-2.34
2023-01-27T02:07:26.859Z,-2.37
2023-01-27T02:10:38.569Z,-2.44
2023-01-27T02:13:46.870Z,-2.53
2023-01-27T02:16:54.141Z,-2.48
2023-01-27T02:20:16.173Z,-2.52
2023-01-27T02:23:43.272Z,-2.54
2023-01-27T02:26:58.266Z,-2.52
2023-01-27T02:30:05.285Z,-2.50
2023-01-27T02:33:15.502Z,-2.55
2023-01-27T02:36:22.858Z,-2.53
2023-01-27T02:39:39.094Z,-2.64
2023-01-27T02:42:49.905Z,-2.66
2023-01-27T02:46:03.470Z,-2.75
2023-01-27T02:49:11.456Z,-2.78
2023-01-27T02:52:17.665Z,-2.84
2023-01-27T02:55:24.701Z,-2.86
2023-01-27T02:58:34.143Z,-2.91
2023-01-27T03:01:48.313Z,-2.86
2023-01-27T03:04:55.023Z,-2.79
2023-01-27T03:08:02.018Z,-2.81
2023-01-27T03:11:08.781Z,-2.79
2023-01-27T03:14:18.842Z,-2.72
2023-01-27T03:17:39.524Z,-2.64
2023-01-27T03:20:50.093Z,-2.74
2023-01-27T03:23:56.315Z,-2.81
2023-01-27T03:27:03.527Z,-2.96
2023-01-27T03:30:30.479Z,-2.93
2023-01-27T03:33:48.963Z,-2.83
2023-01-27T03:37:35.565Z,-2.91
2023-01-27T03:40:54.829Z,-2.85
2023-01-27T03:44:13.407Z,-2.93
2023-01-27T03:47:23.143Z,-3.01
2023-01-27T03:50:37.993Z,-3.17
2023-01-27T03:53:45.283Z,-3.06
2023-01-27T03:56:51.610Z,-3.04
2023-01-27T03:59:59.050Z,-3.08
2023-01-27T04:03:20.191Z,-3.07
2023-01-27T04:06:42.371Z,-3.00
2023-01-27T04:09:48.473Z,-2.95
2023-01-27T04:12:55.958Z,-2.90
2023-01-27T04:16:02.102Z,-3.00
2023-01-27T04:19:14.736Z,-3.06
2023-01-27T04:22:21.330Z,-3.01
2023-01-27T04:25:28.580Z,-3.21
2023-01-27T04:28:43.739Z,-3.10
2023-01-27T04:31:51.836Z,-3.27
2023-01-27T04:35:00.559Z,-3.32
2023-01-27T04:38:07.696Z,-3.27
2023-01-27T04:41:13.853Z,-3.23
2023-01-27T04:44:23.119Z,-3.29
2023-01-27T04:47:29.357Z,-3.27
2023-01-27T04:50:39.044Z,-3.25
2023-01-27T04:53:45.560Z,-3.50
2023-01-27T04:57:03.726Z,-3.31
2023-01-27T05:00:12.200Z,-3.32
2023-01-27T05:03:19.200Z,-3.26
2023-01-27T05:06:29.395Z,-3.27
2023-01-27T05:09:36.439Z,-3.26
2023-01-27T05:12:42.577Z,-3.27
2023-01-27T05:15:49.723Z,-3.31
2023-01-27T05:18:56.941Z,-3.38
2023-01-27T05:22:06.540Z,-3.45
2023-01-27T05:25:13.956Z,-3.45
2023-01-27T05:28:21.266Z,-3.58
2023-01-27T05:31:31.852Z,-3.47
2023-01-27T05:34:39.864Z,-3.53
2023-01-27T05:37:48.498Z,-3.68
2023-01-27T05:41:01.188Z,-3.78
2023-01-27T05:44:09.018Z,-3.72
2023-01-27T05:47:16.269Z,-3.62
2023-01-27T05:50:22.844Z,-3.65
2023-01-27T05:53:32.717Z,-3.71
2023-01-27T05:56:39.515Z,-3.71
2023-01-27T05:59:48.541Z,-3.73
2023-01-27T06:02:54.773Z,-3.74
2023-01-27T06:06:02.085Z,-3.73
2023-01-27T06:09:13.025Z,-3.76
2023-01-27T06:12:19.977Z,-3.76
2023-01-27T06:15:26.272Z,-3.74
2023-01-27T06:18:33.312Z,-3.74
2023-01-27T06:21:39.407Z,-3.91
2023-01-27T06:24:50.114Z,-3.76
2023-01-27T06:27:58.246Z,-3.79
2023-01-27T06:31:10.618Z,-3.81
2023-01-27T06:34:16.697Z,-3.84
2023-01-27T06:37:23.625Z,-3.87
2023-01-27T06:40:34.962Z,-3.93
2023-01-27T06:43:42.070Z,-4.09
2023-01-27T06:46:48.335Z,-4.10
2023-01-27T06:49:55.324Z,-4.09
2023-01-27T06:53:05.334Z,-4.04
2023-01-27T06:56:16.545Z,-4.01
2023-01-27T06:59:23.549Z,-3.96
2023-01-27T07:02:30.657Z,-3.87
2023-01-27T07:05:37.594Z,-3.89
2023-01-27T07:08:47.016Z,-3.86
2023-01-27T07:11:55.799Z,-4.03
2023-01-27T07:15:02.734Z,-3.73
2023-01-27T07:18:09.727Z,-3.41
2023-01-27T07:21:16.621Z,-3.22
2023-01-27T07:24:22.912Z,-3.35
2023-01-27T07:27:32.578Z,-3.18
2023-01-27T07:30:39.498Z,-3.08
2023-01-27T07:33:46.348Z,-3.17
2023-01-27T07:36:52.421Z,-3.24
2023-01-27T07:39:59.355Z,-3.27
2023-01-27T07:43:08.130Z,-3.47
2023-01-27T07:46:15.465Z,-3.64
2023-01-27T07:49:22.221Z,-3.54
2023-01-27T07:52:29.425Z,-3.66
2023-01-27T07:55:37.367Z,-3.72
2023-01-27T07:58:46.940Z,-3.60
2023-01-27T08:01:53.035Z,-3.47
2023-01-27T08:05:00.145Z,-3.60
2023-01-27T08:08:06.745Z,-3.71
2023-01-27T08:11:18.226Z,-3.56
2023-01-27T08:14:26.986Z,-3.71
2023-01-27T08:17:34.039Z,-3.85
2023-01-27T08:20:40.444Z,-3.91
2023-01-27T08:23:47.392Z,-3.83
2023-01-27T08:26:53.663Z,-3.74
2023-01-27T08:30:03.521Z,-3.51
2023-01-27T08:33:09.871Z,-3.54
2023-01-27T08:36:20.505Z,-3.69
2023-01-27T08:39:26.743Z,-3.66
2023-01-27T08:42:33.998Z,-3.80
2023-01-27T08:45:42.850Z,-3.68
2023-01-27T08:48:50.562Z,-3.59
2023-01-27T08:51:57.687Z,-3.41
2023-01-27T08:55:04.724Z,-3.47
2023-01-27T08:58:11.090Z,-3.28
2023-01-27T09:01:21.383Z,-3.33
2023-01-27T09:04:29.536Z,-3.38
2023-01-27T09:07:36.583Z,-3.31
2023-01-27T09:10:44.716Z,-3.17
2023-01-27T09:13:51.737Z,-3.18
2023-01-27T09:17:00.539Z,-3.23
2023-01-27T09:20:10.483Z,-3.10
2023-01-27T09:23:16.772Z,-3.06
2023-01-27T09:26:23.765Z,-3.01
2023-01-27T09:29:30.138Z,-2.89
2023-01-27T09:32:39.821Z,-2.93
2023-01-27T09:35:55.989Z,-2.98
2023-01-27T09:39:09.950Z,-2.75
2023-01-27T09:42:50.250Z,-2.64
2023-01-27T09:46:25.011Z,-2.57
2023-01-27T09:50:02.184Z,-2.46
2023-01-27T09:53:48.392Z,-2.27
2023-01-27T09:57:10.727Z,-2.52
2023-01-27T10:00:42.481Z,-2.53
2023-01-27T10:04:24.384Z,-2.51
2023-01-27T10:08:12.031Z,-2.53
2023-01-27T10:11:29.937Z,-2.72
2023-01-27T10:14:59.229Z,-2.63
2023-01-27T10:18:54.997Z,-2.82
2023-01-27T10:22:19.075Z,-2.91
2023-01-27T10:25:51.691Z,-3.22
2023-01-27T10:29:10.681Z,-3.02
2023-01-27T10:32:46.628Z,-2.99
2023-01-27T10:35:57.398Z,-3.02
2023-01-27T10:39:28.950Z,-3.16
2023-01-27T10:42:50.811Z,-3.03
2023-01-27T10:46:12.033Z,-2.92
2023-01-27T10:49:29.451Z,-3.03
2023-01-27T10:52:44.594Z,-3.18
2023-01-27T10:56:06.002Z,-3.06
2023-01-27T10:59:33.820Z,-3.21
2023-01-27T11:02:53.137Z,-3.24
2023-01-27T11:06:06.003Z,-3.21
2023-01-27T11:09:31.807Z,-3.26
2023-01-27T11:12:43.938Z,-3.16
2023-01-27T11:15:53.923Z,-3.30
2023-01-27T11:19:16.398Z,-3.33
2023-01-27T11:22:42.572Z,-3.19
2023-01-27T11:26:00.308Z,-3.02
2023-01-27T11:29:29.398Z,-2.87
2023-01-27T11:32:55.535Z,-2.86
2023-01-27T11:36:02.875Z,-2.87
2023-01-27T11:39:09.523Z,-2.72
2023-01-27T11:42:17.708Z,-2.66
2023-01-27T11:45:25.261Z,-2.81
2023-01-27T11:48:45.360Z,-2.81
2023-01-27T11:51:52.179Z,-2.65
2023-01-27T11:55:18.273Z,-2.73
2023-01-27T11:58:33.505Z,-2.87
2023-01-27T12:01:51.403Z,-2.73
2023-01-27T12:05:12.436Z,-2.57
2023-01-27T12:08:42.661Z,-2.49
2023-01-27T12:11:48.830Z,-2.58
2023-01-27T12:14:59.428Z,-2.78
2023-01-27T12:18:17.408Z,-2.67
2023-01-27T12:21:46.830Z,-2.49
2023-01-27T12:25:03.688Z,-2.64
2023-01-27T12:28:31.888Z,-2.59
2023-01-27T12:31:52.512Z,-2.76
2023-01-27T12:35:00.205Z,-2.48
2023-01-27T12:38:20.877Z,-2.36
2023-01-27T12:41:31.327Z,-2.37
2023-01-27T12:44:46.823Z,-2.16
2023-01-27T12:48:19.104Z,-2.39
2023-01-27T12:51:46.035Z,-2.56
2023-01-27T12:54:57.232Z,-2.41
2023-01-27T12:58:05.070Z,-2.43
2023-01-27T13:01:28.834Z,-2.43
2023-01-27T13:04:37.354Z,-2.47
2023-01-27T13:07:52.415Z,-2.38
2023-01-27T13:11:05.648Z,-2.39
2023-01-27T13:14:21.782Z,-2.39
2023-01-27T13:17:39.363Z,-2.40
2023-01-27T13:20:54.103Z,-2.64
2023-01-27T13:24:08.471Z,-2.52
2023-01-27T13:27:26.077Z,-2.54
2023-01-27T13:30:40.663Z,-2.73
2023-01-27T13:33:56.321Z,-2.69
2023-01-27T13:37:15.351Z,-2.65
2023-01-27T13:40:29.685Z,-2.57
2023-01-27T13:43:49.945Z,-2.56
2023-01-27T13:47:05.859Z,-2.46
2023-01-27T13:50:30.678Z,-2.23
2023-01-27T13:53:37.972Z,-2.52
2023-01-27T13:57:09.095Z,-2.46
2023-01-27T14:00:28.263Z,-2.57
2023-01-27T14:04:33.127Z,-2.56
2023-01-27T14:07:53.463Z,-2.36
2023-01-27T14:11:21.007Z,-2.52
2023-01-27T14:14:58.172Z,-2.69
2023-01-27T14:18:18.379Z,-2.69
2023-01-27T14:21:44.365Z,-2.68
2023-01-27T14:25:21.886Z,-2.73
2023-01-27T14:28:47.299Z,-2.56
2023-01-27T14:32:10.194Z,-2.49
2023-01-27T14:35:48.827Z,-2.57
2023-01-27T14:39:15.551Z,-2.69
2023-01-27T14:42:41.458Z,-2.55
2023-01-27T14:45:59.533Z,-2.56
2023-01-27T14:49:27.193Z,-2.60
2023-01-27T14:52:49.664Z,-2.73
2023-01-27T14:56:09.754Z,-2.80
2023-01-27T14:59:35.454Z,-2.74
2023-01-27T15:02:56.648Z,-2.65
2023-01-27T15:06:17.782Z,-2.72
2023-01-27T15:09:54.548Z,-2.82
2023-01-27T15:13:39.363Z,-2.77
2023-01-27T15:17:14.758Z,-2.83
2023-01-27T15:20:56.008Z,-2.78
2023-01-27T15:24:37.365Z,-2.80
2023-01-27T15:27:46.110Z,-2.74
2023-01-27T15:31:24.193Z,-2.65
2023-01-27T15:34:31.471Z,-2.80
2023-01-27T15:38:02.182Z,-2.76
2023-01-27T15:41:17.803Z,-2.91
2023-01-27T15:44:33.694Z,-2.94
2023-01-27T15:47:40.787Z,-3.15
2023-01-27T15:50:56.976Z,-3.11
2023-01-27T15:54:04.901Z,-3.05
2023-01-27T15:57:32.111Z,-3.00
2023-01-27T16:00:42.990Z,-2.88
2023-01-27T16:03:53.394Z,-2.80
2023-01-27T16:07:04.963Z,-2.84
2023-01-27T16:10:25.511Z,-2.87
2023-01-27T16:13:34.540Z,-2.80
2023-01-27T16:16:43.416Z,-2.72
2023-01-27T16:20:03.528Z,-2.76
2023-01-27T16:23:19.444Z,-2.63
2023-01-27T16:26:39.901Z,-2.59
2023-01-27T16:30:00.924Z,-2.61
2023-01-27T16:33:18.370Z,-2.55
2023-01-27T16:36:31.921Z,-2.51
2023-01-27T16:39:50.419Z,-2.43
2023-01-27T16:43:06.407Z,-2.40
2023-01-27T16:46:40.909Z,-2.39
2023-01-27T16:49:49.978Z,-2.40
2023-01-27T16:52:56.242Z,-2.72
2023-01-27T16:56:08.454Z,-2.76
2023-01-27T16:59:29.807Z,-2.73
2023-01-27T17:02:41.981Z,-2.75
2023-01-27T17:05:56.268Z,-2.79
2023-01-27T17:09:03.499Z,-2.86
2023-01-27T18:29:08.065Z,-3.18
2023-01-27T18:32:23.999Z,-3.35
2023-01-27T18:35:38.051Z,-3.31
2023-01-27T18:38:51.035Z,-3.20
2023-01-27T18:41:57.478Z,-3.25
2023-01-27T18:45:12.289Z,-3.13
2023-01-27T18:48:21.289Z,-3.14
2023-01-27T18:51:29.055Z,-3.11
2023-01-27T18:54:35.105Z,-2.97
2023-01-27T18:57:41.767Z,-2.91
2023-01-27T19:00:55.894Z,-2.78
2023-01-27T19:04:06.020Z,-2.79
2023-01-27T19:07:16.146Z,-2.76
2023-01-27T19:10:28.583Z,-3.02
2023-01-27T19:13:37.236Z,-2.95
2023-01-27T19:17:05.362Z,-2.94
2023-01-27T19:20:20.239Z,-3.12
2023-01-27T19:23:32.115Z,-3.06
2023-01-27T19:26:41.374Z,-3.07
2023-01-27T19:29:48.386Z,-3.06
2023-01-27T19:32:58.471Z,-3.24
2023-01-27T19:36:21.033Z,-3.37
2023-01-27T19:39:27.062Z,-3.39
2023-01-27T19:42:33.686Z,-3.35
2023-01-27T19:45:39.590Z,-3.52
2023-01-27T19:48:49.403Z,-3.50
2023-01-27T19:51:55.246Z,-3.54
2023-01-27T19:55:05.302Z,-3.62
2023-01-27T19:58:31.361Z,-3.61
2023-01-27T20:01:38.523Z,-3.52
2023-01-27T20:04:46.989Z,-3.69
2023-01-27T20:07:54.673Z,-3.72
2023-01-27T20:11:05.829Z,-3.49
2023-01-27T20:14:19.030Z,-3.53
2023-01-27T20:17:25.007Z,-3.47
2023-01-27T20:20:34.549Z,-3.36
2023-01-27T20:23:41.815Z,-3.49
2023-01-27T20:26:49.556Z,-3.60
2023-01-27T20:29:56.005Z,-3.60
2023-01-27T20:33:05.271Z,-3.78
2023-01-27T20:36:19.830Z,-3.87
2023-01-27T20:39:26.728Z,-3.78
2023-01-27T20:42:33.587Z,-3.78
2023-01-27T20:45:41.082Z,-3.64
2023-01-27T20:48:47.835Z,-3.68
2023-01-27T20:51:57.264Z,-3.71
2023-01-27T20:55:03.165Z,-3.73
2023-01-27T20:58:12.892Z,-3.52
2023-01-27T21:01:22.788Z,-3.43
2023-01-27T21:04:36.114Z,-3.49
2023-01-27T21:07:44.927Z,-3.60
2023-01-27T21:10:51.522Z,-3.65
2023-01-27T21:13:57.339Z,-3.71
2023-01-27T21:17:03.965Z,-3.83
2023-01-27T21:20:12.093Z,-3.78
2023-01-27T21:23:24.099Z,-3.69
2023-01-27T21:26:30.851Z,-3.79
2023-01-27T21:29:37.604Z,-3.73
2023-01-27T21:32:43.416Z,-3.73
2023-01-27T21:35:58.173Z,-3.71
2023-01-27T21:39:06.976Z,-3.82
2023-01-27T21:42:29.873Z,-3.88
2023-01-27T21:45:38.744Z,-3.75
2023-01-27T21:48:46.055Z,-3.73
2023-01-27T21:51:53.144Z,-3.84
2023-01-27T21:55:11.424Z,-3.82
2023-01-27T21:58:27.071Z,-3.66
2023-01-27T22:01:36.093Z,-3.71
2023-01-27T22:04:44.198Z,-3.68
2023-01-27T22:07:51.902Z,-3.54
2023-01-27T22:11:05.277Z,-3.44
2023-01-27T22:14:11.837Z,-3.46
2023-01-27T22:17:19.865Z,-3.54
2023-01-27T22:20:26.684Z,-3.50
2023-01-27T22:23:32.530Z,-3.50
2023-01-27T22:26:46.269Z,-3.56
2023-01-27T22:29:52.066Z,-3.54
2023-01-27T22:32:58.861Z,-3.88
2023-01-27T22:36:07.479Z,-3.72
2023-01-27T22:39:14.543Z,-3.64
2023-01-27T22:42:22.930Z,-3.64
2023-01-27T22:45:29.876Z,-3.63
2023-01-27T22:48:39.296Z,-3.79
2023-01-27T22:51:48.619Z,-3.91
2023-01-27T22:54:55.778Z,-3.84
2023-01-27T22:58:05.211Z,-3.76
2023-01-27T23:01:11.791Z,-3.64
2023-01-27T23:04:18.615Z,-3.55
2023-01-27T23:07:24.691Z,-3.50
2023-01-27T23:10:31.285Z,-3.62
2023-01-27T23:13:40.063Z,-3.72
2023-01-27T23:16:46.797Z,-3.67
2023-01-27T23:19:52.662Z,-3.80
2023-01-27T23:22:59.187Z,-3.77
2023-01-27T23:26:08.118Z,-3.65
2023-01-27T23:29:24.664Z,-3.80
2023-01-27T23:32:31.383Z,-3.85
2023-01-27T23:35:37.993Z,-3.84
2023-01-27T23:38:43.775Z,-3.84
2023-01-27T23:41:56.419Z,-3.91
2023-01-27T23:45:25.512Z,-3.74
2023-01-27T23:48:32.609Z,-3.83
2023-01-27T23:51:38.374Z,-3.84
2023-01-27T23:54:44.948Z,-3.82
2023-01-27T23:57:50.693Z,-3.93
